createdAt,value
2019-03-30T00:00:01.007Z,99.99
2019-03-30T00:01:01.009Z,99.91
2019-03-30T00:02:00.997Z,99.99
2019-03-30T00:03:00.971Z,99.99
2019-03-30T00:04:00.961Z,99.99
2019-03-30T00:05:00.962Z,99.99
2019-03-30T00:06:00.954Z,99.99
2019-03-30T00:07:00.937Z,99.99
2019-03-30T00:08:00.901Z,99.99
2019-03-30T00:09:00.906Z,99.99
2019-03-30T00:10:00.881Z,99.99
2019-03-30T00:11:00.877Z,99.99
2019-03-30T00:12:01.018Z,99.99
2019-03-30T00:13:00.853Z,99.99
2019-03-30T00:14:00.818Z,99.99
2019-03-30T00:15:00.824Z,99.99
2019-03-30T00:16:00.794Z,99.99
2019-03-30T00:17:00.789Z,99.99
2019-03-30T00:18:00.766Z,99.99
2019-03-30T00:19:00.769Z,99.99
2019-03-30T00:20:00.757Z,99.99
2019-03-30T00:21:00.727Z,99.99
2019-03-30T00:22:00.709Z,99.99
2019-03-30T00:23:00.697Z,99.99
2019-03-30T00:24:00.701Z,99.99
2019-03-30T00:25:00.676Z,99.99
2019-03-30T00:26:00.659Z,99.99
2019-03-30T00:27:00.663Z,99.99
2019-03-30T00:28:00.630Z,99.99
2019-03-30T00:29:00.635Z,99.99
2019-03-30T00:30:00.603Z,99.99
2019-03-30T00:31:00.617Z,99.99
2019-03-30T00:32:00.576Z,99.99
2019-03-30T00:33:00.567Z,99.99
2019-03-30T00:34:00.547Z,99.99
2019-03-30T00:35:00.553Z,99.99
2019-03-30T00:36:00.538Z,99.99
2019-03-30T00:37:00.515Z,99.99
2019-03-30T00:38:00.494Z,99.99
2019-03-30T00:39:00.479Z,99.99
2019-03-30T00:40:00.537Z,99.99
2019-03-30T00:41:00.461Z,99.99
2019-03-30T00:42:00.460Z,99.99
2019-03-30T00:43:00.425Z,99.99
2019-03-30T00:44:00.431Z,99.99
2019-03-30T00:45:00.398Z,99.99
2019-03-30T00:46:00.410Z,99.99
2019-03-30T00:47:00.372Z,99.99
2019-03-30T00:48:00.377Z,99.99
2019-03-30T00:49:00.359Z,99.99
2019-03-30T00:50:00.350Z,99.99
2019-03-30T00:51:00.315Z,99.99
2019-03-30T00:52:00.323Z,99.99
2019-03-30T00:53:00.295Z,99.99
2019-03-30T00:54:00.275Z,99.99
2019-03-30T00:55:00.395Z,99.99
2019-03-30T00:56:00.265Z,99.96
2019-03-30T00:57:00.243Z,99.99
2019-03-30T00:58:00.240Z,99.99
2019-03-30T00:59:00.207Z,99.99
2019-03-30T01:00:00.388Z,99.99
2019-03-30T01:01:00.180Z,99.99
2019-03-30T01:02:00.184Z,99.99
2019-03-30T01:03:00.153Z,99.99
2019-03-30T01:04:00.158Z,99.99
2019-03-30T01:04:59.897Z,99.99
2019-03-30T01:06:00.796Z,99.99
2019-03-30T01:07:00.100Z,99.99
2019-03-30T01:08:00.084Z,99.99
2019-03-30T01:09:00.291Z,99.99
2019-03-30T01:10:00.140Z,99.99
2019-03-30T01:11:00.063Z,99.99
2019-03-30T01:12:00.030Z,99.99
2019-03-30T01:13:00.032Z,99.99
2019-03-30T01:14:00.004Z,99.99
2019-03-30T01:15:00.006Z,99.87
2019-03-30T01:15:59.975Z,99.99
2019-03-30T01:16:59.976Z,99.99
2019-03-30T01:17:59.968Z,99.99
2019-03-30T01:18:59.938Z,99.99
2019-03-30T01:20:05.758Z,99.99
2019-03-30T01:20:59.918Z,99.99
2019-03-30T01:21:59.912Z,99.99
2019-03-30T01:22:59.881Z,99.99
2019-03-30T01:23:59.867Z,99.99
2019-03-30T01:24:59.863Z,99.99
2019-03-30T01:25:59.858Z,99.99
2019-03-30T01:26:59.840Z,99.99
2019-03-30T01:27:59.809Z,99.99
2019-03-30T01:34:59.753Z,99.99
2019-03-30T01:35:59.717Z,99.99
2019-03-30T01:43:59.590Z,99.99
2019-03-30T01:44:59.591Z,99.99
2019-03-30T02:02:59.324Z,99.99
2019-03-30T02:03:59.327Z,99.99
2019-03-30T02:04:59.310Z,99.99
2019-03-30T02:05:59.294Z,99.99
2019-03-30T02:06:59.276Z,99.99
2019-03-30T02:07:59.252Z,99.99
2019-03-30T02:08:59.265Z,99.99
2019-03-30T02:09:59.304Z,99.99
2019-03-30T02:10:59.211Z,99.99
2019-03-30T02:11:59.216Z,99.99
2019-03-30T02:12:59.182Z,99.99
2019-03-30T02:13:59.185Z,99.99
2019-03-30T02:14:59.168Z,99.99
2019-03-30T02:15:59.157Z,99.99
2019-03-30T02:16:59.123Z,99.99
2019-03-30T02:17:59.120Z,99.99
2019-03-30T02:18:59.098Z,99.99
2019-03-30T02:19:59.105Z,99.99
2019-03-30T02:20:59.086Z,99.99
2019-03-30T02:21:59.065Z,99.99
2019-03-30T02:22:59.040Z,99.99
2019-03-30T02:23:59.026Z,99.99
2019-03-30T02:24:59.030Z,99.99
2019-03-30T02:25:59.001Z,99.99
2019-03-30T02:26:59.010Z,99.99
2019-03-30T02:27:58.972Z,99.99
2019-03-30T02:28:58.973Z,99.99
2019-03-30T02:29:58.940Z,99.99
2019-03-30T02:30:58.947Z,99.99
2019-03-30T02:31:58.928Z,99.99
2019-03-30T02:32:58.923Z,99.99
2019-03-30T02:33:58.904Z,99.99
2019-03-30T02:34:58.899Z,99.99
2019-03-30T02:35:58.858Z,99.99
2019-03-30T02:36:58.862Z,99.99
2019-03-30T02:37:58.837Z,99.99
2019-03-30T02:38:58.818Z,99.99
2019-03-30T02:39:58.802Z,99.99
2019-03-30T02:40:58.863Z,99.99
2019-03-30T02:41:58.782Z,99.99
2019-03-30T02:42:58.783Z,99.99
2019-03-30T02:43:58.753Z,99.99
2019-03-30T02:44:58.754Z,99.99
2019-03-30T02:45:58.741Z,99.99
2019-03-30T02:46:58.725Z,99.99
2019-03-30T02:47:58.711Z,99.99
2019-03-30T02:48:58.698Z,99.99
2019-03-30T02:49:58.674Z,99.99
2019-03-30T02:50:58.667Z,99.99
2019-03-30T02:51:58.645Z,99.99
2019-03-30T02:52:58.642Z,99.99
2019-03-30T02:53:58.634Z,99.99
2019-03-30T02:54:58.607Z,99.99
2019-03-30T02:55:58.593Z,99.99
2019-03-30T02:56:58.561Z,99.99
2019-03-30T02:57:58.557Z,99.99
2019-03-30T02:58:58.533Z,99.99
2019-03-30T02:59:58.534Z,99.99
2019-03-30T03:00:58.506Z,99.99
2019-03-30T03:01:58.501Z,99.99
2019-03-30T03:02:58.523Z,99.99
2019-03-30T03:03:58.460Z,99.99
2019-03-30T03:04:58.464Z,99.99
2019-03-30T03:05:58.457Z,99.99
2019-03-30T03:06:58.433Z,99.99
2019-03-30T03:07:58.401Z,99.99
2019-03-30T03:08:58.391Z,99.99
2019-03-30T03:09:58.390Z,99.99
2019-03-30T03:10:58.387Z,99.99
2019-03-30T03:11:58.366Z,99.99
2019-03-30T03:12:58.330Z,99.99
2019-03-30T03:13:58.345Z,99.99
2019-03-30T03:14:58.306Z,99.99
2019-03-30T03:15:58.308Z,99.99
2019-03-30T03:16:58.303Z,99.99
2019-03-30T03:17:58.349Z,99.99
2019-03-30T03:18:58.243Z,99.99
2019-03-30T03:19:58.255Z,99.99
2019-03-30T03:21:10.527Z,99.99
2019-03-30T03:21:58.212Z,99.99
2019-03-30T03:22:58.195Z,99.99
2019-03-30T03:23:58.193Z,99.99
2019-03-30T03:24:58.188Z,99.99
2019-03-30T03:25:58.145Z,99.99
2019-03-30T03:26:58.166Z,99.99
2019-03-30T03:27:58.133Z,99.99
2019-03-30T03:28:58.101Z,99.99
2019-03-30T03:29:58.136Z,99.99
2019-03-30T03:30:58.120Z,99.99
2019-03-30T03:31:58.109Z,99.99
2019-03-30T03:32:58.150Z,99.99
2019-03-30T03:33:58.052Z,99.99
2019-03-30T03:34:58.018Z,99.99
2019-03-30T03:35:58.021Z,99.99
2019-03-30T03:36:57.994Z,99.99
2019-03-30T03:37:57.988Z,99.99
2019-03-30T03:38:58.003Z,99.99
2019-03-30T03:39:57.978Z,99.99
2019-03-30T03:40:57.987Z,99.99
2019-03-30T03:41:57.920Z,99.99
2019-03-30T03:42:57.906Z,99.99
2019-03-30T03:43:57.880Z,99.99
2019-03-30T03:44:57.885Z,99.99
2019-03-30T03:45:57.873Z,99.99
2019-03-30T03:46:57.857Z,99.99
2019-03-30T03:47:57.836Z,99.99
2019-03-30T03:48:57.827Z,99.99
2019-03-30T03:49:57.799Z,99.99
2019-03-30T03:50:57.796Z,99.99
2019-03-30T03:51:57.769Z,99.99
2019-03-30T03:52:57.772Z,99.99
2019-03-30T03:53:57.750Z,99.99
2019-03-30T03:54:57.723Z,99.99
2019-03-30T03:55:57.758Z,99.99
2019-03-30T03:56:57.712Z,99.99
2019-03-30T03:57:57.686Z,99.99
2019-03-30T03:58:57.672Z,99.99
2019-03-30T03:59:57.648Z,99.99
2019-03-30T04:00:57.661Z,99.99
2019-03-30T04:01:57.644Z,99.99
2019-03-30T04:02:57.644Z,99.99
2019-03-30T04:03:57.591Z,99.99
2019-03-30T04:04:57.601Z,99.99
2019-03-30T04:05:57.587Z,99.99
2019-03-30T04:06:57.587Z,99.99
2019-03-30T04:07:57.530Z,99.99
2019-03-30T04:08:57.547Z,99.99
2019-03-30T04:09:57.524Z,99.99
2019-03-30T04:10:57.515Z,99.99
2019-03-30T04:11:57.545Z,99.99
2019-03-30T04:12:57.465Z,99.99
2019-03-30T04:13:57.464Z,99.99
2019-03-30T04:14:57.466Z,99.99
2019-03-30T04:15:57.438Z,99.99
2019-03-30T04:16:57.409Z,99.99
2019-03-30T04:17:57.405Z,99.99
2019-03-30T04:18:57.400Z,99.99
2019-03-30T04:19:57.371Z,99.99
2019-03-30T04:20:57.372Z,99.99
2019-03-30T04:21:57.336Z,99.99
2019-03-30T04:22:57.337Z,99.99
2019-03-30T04:23:57.325Z,99.99
2019-03-30T04:24:57.303Z,99.99
2019-03-30T04:25:57.290Z,99.99
2019-03-30T04:26:57.283Z,99.99
2019-03-30T04:27:57.242Z,99.99
2019-03-30T04:28:57.226Z,99.99
2019-03-30T04:29:57.237Z,99.99
2019-03-30T04:30:57.217Z,99.99
2019-03-30T04:31:57.233Z,99.99
2019-03-30T04:32:57.181Z,99.99
2019-03-30T04:33:57.182Z,99.99
2019-03-30T04:34:57.144Z,99.99
2019-03-30T04:35:57.148Z,99.99
2019-03-30T04:36:57.115Z,99.99
2019-03-30T04:37:57.119Z,99.99
2019-03-30T04:38:57.096Z,99.99
2019-03-30T04:39:57.085Z,99.99
2019-03-30T04:40:57.057Z,99.99
2019-03-30T04:41:57.055Z,99.99
2019-03-30T04:42:57.032Z,99.99
2019-03-30T04:43:57.027Z,99.99
2019-03-30T04:44:57.011Z,99.99
2019-03-30T04:45:56.995Z,99.99
2019-03-30T04:46:56.985Z,99.99
2019-03-30T04:47:56.977Z,99.99
2019-03-30T04:48:57.075Z,99.99
2019-03-30T04:49:56.935Z,99.99
2019-03-30T04:50:56.914Z,99.99
2019-03-30T04:52:00.300Z,99.99
2019-03-30T04:52:56.877Z,99.99
2019-03-30T04:53:56.882Z,99.99
2019-03-30T04:54:56.849Z,99.99
2019-03-30T04:55:56.852Z,99.99
2019-03-30T04:56:56.821Z,99.99
2019-03-30T04:58:00.357Z,99.99
2019-03-30T04:58:56.791Z,99.99
2019-03-30T04:59:56.796Z,99.99
2019-03-30T05:00:56.785Z,99.99
2019-03-30T05:01:56.754Z,99.99
2019-03-30T05:02:56.737Z,99.99
2019-03-30T05:03:56.720Z,99.99
2019-03-30T05:04:56.722Z,99.99
2019-03-30T05:05:56.698Z,99.99
2019-03-30T05:06:56.701Z,99.99
2019-03-30T05:07:56.661Z,99.99
2019-03-30T05:08:56.672Z,99.99
2019-03-30T05:09:56.642Z,99.99
2019-03-30T05:10:56.618Z,99.99
2019-03-30T05:11:56.626Z,99.99
2019-03-30T05:12:56.605Z,99.99
2019-03-30T05:13:56.881Z,99.99
2019-03-30T05:14:56.562Z,99.99
2019-03-30T05:15:56.566Z,99.99
2019-03-30T05:16:56.550Z,99.99
2019-03-30T05:17:56.533Z,99.99
2019-03-30T05:18:56.503Z,99.99
2019-03-30T05:19:56.490Z,99.99
2019-03-30T05:20:56.495Z,99.99
2019-03-30T05:22:05.922Z,99.99
2019-03-30T05:22:56.452Z,99.96
2019-03-30T05:23:56.204Z,99.96
2019-03-30T05:24:56.445Z,99.99
2019-03-30T05:25:56.424Z,99.99
2019-03-30T05:26:56.393Z,99.96
2019-03-30T05:27:56.399Z,99.99
2019-03-30T05:28:56.365Z,99.99
2019-03-30T05:29:56.361Z,99.99
2019-03-30T05:30:56.341Z,99.82
2019-03-30T05:31:56.352Z,99.99
2019-03-30T05:33:08.090Z,99.99
2019-03-30T05:33:56.308Z,99.99
2019-03-30T05:34:56.285Z,99.99
2019-03-30T05:35:56.294Z,99.63
2019-03-30T05:36:56.260Z,99.63
2019-03-30T05:37:56.261Z,99.87
2019-03-30T05:38:55.996Z,99.58
2019-03-30T05:39:56.240Z,99.77
2019-03-30T05:40:56.212Z,99.68
2019-03-30T05:41:56.216Z,99.73
2019-03-30T05:42:56.186Z,99.54
2019-03-30T05:43:56.192Z,99.16
2019-03-30T05:44:57.745Z,99.54
2019-03-30T05:45:56.155Z,99.07
2019-03-30T05:46:56.139Z,99.44
2019-03-30T05:47:56.145Z,99.35
2019-03-30T05:48:56.134Z,98.83
2019-03-30T05:49:56.109Z,98.64
2019-03-30T05:50:56.103Z,98.83
2019-03-30T05:51:56.083Z,99.02
2019-03-30T05:52:56.092Z,98.88
2019-03-30T05:53:56.065Z,98.6
2019-03-30T05:54:56.073Z,98.6
2019-03-30T05:55:56.044Z,98.69
2019-03-30T05:56:56.047Z,98.6
2019-03-30T05:57:56.019Z,98.74
2019-03-30T05:58:56.027Z,98.27
2019-03-30T05:59:58.429Z,98.36
2019-03-30T06:00:56.010Z,98.46
2019-03-30T06:01:55.986Z,98.69
2019-03-30T06:02:55.972Z,98.03
2019-03-30T06:03:55.987Z,97.93
2019-03-30T06:04:55.970Z,98.03
2019-03-30T06:05:55.945Z,98.08
2019-03-30T06:06:55.933Z,97.7
2019-03-30T06:07:55.930Z,97.89
2019-03-30T06:08:55.951Z,97.51
2019-03-30T06:09:55.912Z,97.7
2019-03-30T06:10:55.917Z,97.94
2019-03-30T06:11:55.890Z,97.84
2019-03-30T06:12:55.905Z,97.46
2019-03-30T06:13:55.876Z,97.46
2019-03-30T06:14:55.888Z,97.41
2019-03-30T06:15:55.858Z,97.13
2019-03-30T06:16:55.867Z,97.13
2019-03-30T06:17:55.611Z,96.36
2019-03-30T06:18:55.861Z,96.61
2019-03-30T06:19:55.827Z,96.61
2019-03-30T06:20:55.826Z,96.51
2019-03-30T06:21:55.826Z,95.98
2019-03-30T06:22:55.827Z,95.89
2019-03-30T06:23:55.820Z,95.12
2019-03-30T06:24:55.793Z,94.6
2019-03-30T06:25:55.800Z,94.79
2019-03-30T06:26:55.801Z,93.93
2019-03-30T06:27:55.776Z,94.03
2019-03-30T06:28:55.786Z,93.21
2019-03-30T06:29:55.762Z,93.41
2019-03-30T06:30:55.779Z,92.83
2019-03-30T06:31:55.752Z,92.79
2019-03-30T06:32:55.778Z,91.54
2019-03-30T06:33:55.756Z,90.44
2019-03-30T06:34:55.755Z,89.96
2019-03-30T06:35:55.734Z,89.96
2019-03-30T06:36:55.725Z,88.86
2019-03-30T06:37:55.739Z,88.38
2019-03-30T06:38:55.745Z,87.52
2019-03-30T06:39:55.734Z,86.66
2019-03-30T06:40:55.711Z,85.94
2019-03-30T06:41:55.720Z,85.65
2019-03-30T06:42:55.703Z,84.02
2019-03-30T06:43:55.718Z,83.83
2019-03-30T06:44:55.698Z,83.54
2019-03-30T06:45:55.711Z,82.97
2019-03-30T06:46:55.690Z,82.92
2019-03-30T06:47:55.704Z,81.77
2019-03-30T06:48:55.439Z,82.15
2019-03-30T06:49:55.685Z,82.34
2019-03-30T06:50:55.679Z,81.67
2019-03-30T06:51:55.693Z,81.13
2019-03-30T06:53:00.818Z,80.94
2019-03-30T06:53:55.685Z,80.66
2019-03-30T06:54:55.683Z,80.22
2019-03-30T06:55:55.695Z,79.26
2019-03-30T06:56:55.660Z,78.4
2019-03-30T06:57:55.758Z,78.02
2019-03-30T06:58:55.658Z,77.63
2019-03-30T06:59:55.671Z,77.73
2019-03-30T07:00:55.652Z,76.96
2019-03-30T07:01:55.667Z,76.42
2019-03-30T07:02:55.649Z,76.77
2019-03-30T07:03:55.665Z,76.19
2019-03-30T07:04:55.642Z,76.77
2019-03-30T07:05:55.653Z,76.71
2019-03-30T07:06:55.657Z,76.62
2019-03-30T07:07:55.638Z,76.04
2019-03-30T07:08:55.636Z,75.56
2019-03-30T07:09:55.647Z,75.18
2019-03-30T07:10:55.651Z,74.98
2019-03-30T07:11:55.649Z,74.73
2019-03-30T07:12:55.630Z,74.73
2019-03-30T07:13:55.642Z,73.77
2019-03-30T07:14:55.634Z,73.49
2019-03-30T07:15:55.649Z,73.49
2019-03-30T07:16:55.663Z,73.24
2019-03-30T07:17:55.637Z,72.37
2019-03-30T07:18:55.644Z,71.98
2019-03-30T07:19:55.626Z,71.98
2019-03-30T07:20:55.643Z,71.93
2019-03-30T07:21:55.638Z,71.45
2019-03-30T07:22:55.646Z,71.45
2019-03-30T07:23:55.622Z,71.25
2019-03-30T07:24:55.629Z,71.19
2019-03-30T07:25:55.637Z,70.52
2019-03-30T07:26:55.643Z,69.95
2019-03-30T07:27:55.655Z,69.31
2019-03-30T07:28:55.627Z,68.83
2019-03-30T07:29:55.642Z,68.54
2019-03-30T07:30:55.628Z,68.67
2019-03-30T07:31:55.650Z,68.29
2019-03-30T07:32:55.641Z,67.32
2019-03-30T07:33:55.659Z,66.68
2019-03-30T07:34:55.638Z,66.39
2019-03-30T07:35:55.665Z,66.39
2019-03-30T07:36:55.644Z,66.3
2019-03-30T07:37:55.652Z,65.66
2019-03-30T07:38:55.652Z,64.76
2019-03-30T07:39:55.671Z,64.76
2019-03-30T07:40:55.676Z,64.21
2019-03-30T07:41:55.672Z,63.79
2019-03-30T07:42:55.662Z,63.92
2019-03-30T07:43:55.697Z,64.18
2019-03-30T07:44:55.670Z,64.37
2019-03-30T07:45:55.689Z,64.18
2019-03-30T07:46:55.682Z,63.99
2019-03-30T07:47:55.709Z,63.79
2019-03-30T07:48:55.773Z,63.79
2019-03-30T07:49:55.709Z,63.6
2019-03-30T07:50:55.699Z,63.44
2019-03-30T07:51:55.716Z,63.54
2019-03-30T07:52:55.701Z,63.15
2019-03-30T07:53:55.708Z,63.15
2019-03-30T07:54:55.712Z,63.06
2019-03-30T07:56:10.127Z,62.6
2019-03-30T07:57:16.728Z,63.15
2019-03-30T07:57:55.830Z,62.38
2019-03-30T07:58:55.726Z,63.44
2019-03-30T07:59:55.726Z,63.06
2019-03-30T08:00:55.748Z,63.06
2019-03-30T08:01:55.739Z,63.44
2019-03-30T08:02:55.754Z,62.87
2019-03-30T08:03:55.740Z,63.06
2019-03-30T08:04:55.762Z,62.96
2019-03-30T08:05:56.909Z,62.93
2019-03-30T08:06:55.766Z,63.51
2019-03-30T08:07:55.755Z,64.08
2019-03-30T08:08:55.778Z,64.08
2019-03-30T08:09:55.765Z,64.56
2019-03-30T08:10:55.763Z,64.18
2019-03-30T08:11:55.781Z,64.28
2019-03-30T08:12:55.814Z,64.18
2019-03-30T08:13:55.771Z,64.28
2019-03-30T08:14:55.772Z,64.82
2019-03-30T08:15:55.782Z,64.95
2019-03-30T08:16:55.796Z,64.43
2019-03-30T08:17:55.786Z,65.4
2019-03-30T08:18:55.878Z,65.69
2019-03-30T08:19:55.784Z,65.4
2019-03-30T08:20:55.807Z,65.3
2019-03-30T08:21:55.786Z,65.27
2019-03-30T08:22:55.807Z,65.56
2019-03-30T08:23:55.788Z,66.23
2019-03-30T08:24:55.807Z,66.58
2019-03-30T08:25:55.803Z,66.77
2019-03-30T08:26:55.807Z,66.93
2019-03-30T08:27:55.797Z,67.61
2019-03-30T08:28:55.798Z,68.37
2019-03-30T08:29:55.806Z,68.63
2019-03-30T08:30:55.805Z,69.78
2019-03-30T08:31:55.810Z,69.59
2019-03-30T08:32:55.782Z,69.97
2019-03-30T08:33:55.807Z,69.93
2019-03-30T08:34:55.797Z,70.32
2019-03-30T08:35:55.775Z,70.51
2019-03-30T08:36:59.030Z,71.28
2019-03-30T08:37:55.770Z,71.76
2019-03-30T08:38:55.786Z,71.57
2019-03-30T08:39:55.766Z,72.11
2019-03-30T08:40:55.781Z,72.3
2019-03-30T08:41:55.773Z,72.49
2019-03-30T08:42:55.779Z,73.26
2019-03-30T08:43:55.753Z,74.22
2019-03-30T08:44:55.749Z,73.65
2019-03-30T08:45:55.762Z,74.12
2019-03-30T08:46:55.766Z,74.31
2019-03-30T08:47:55.737Z,74.69
2019-03-30T08:48:55.754Z,75.18
2019-03-30T08:49:55.734Z,75.43
2019-03-30T08:50:55.744Z,75.75
2019-03-30T08:51:55.742Z,74.79
2019-03-30T08:52:55.743Z,74.95
2019-03-30T08:53:57.318Z,75.23
2019-03-30T08:54:55.728Z,74.66
2019-03-30T08:55:55.712Z,75.23
2019-03-30T08:56:55.724Z,75.14
2019-03-30T08:57:55.716Z,75.14
2019-03-30T08:58:55.713Z,75.43
2019-03-30T08:59:55.689Z,75.81
2019-03-30T09:00:55.706Z,75.71
2019-03-30T09:01:55.688Z,75.81
2019-03-30T09:02:55.678Z,76.67
2019-03-30T09:03:55.676Z,76.48
2019-03-30T09:04:55.686Z,77.06
2019-03-30T09:05:55.666Z,77.15
2019-03-30T09:06:55.677Z,76.96
2019-03-30T09:07:55.658Z,76.82
2019-03-30T09:08:55.690Z,76.82
2019-03-30T09:09:55.646Z,76.82
2019-03-30T09:10:55.662Z,77.02
2019-03-30T09:11:55.635Z,77.02
2019-03-30T09:12:55.649Z,76.92
2019-03-30T09:13:55.644Z,76.92
2019-03-30T09:14:55.661Z,76.44
2019-03-30T09:15:55.615Z,76.82
2019-03-30T09:16:55.615Z,76.92
2019-03-30T09:17:55.620Z,76.15
2019-03-30T09:18:55.620Z,76.82
2019-03-30T09:19:55.614Z,77.21
2019-03-30T09:20:55.594Z,76.92
2019-03-30T09:21:55.604Z,76.92
2019-03-30T09:22:55.597Z,76.35
2019-03-30T09:24:08.711Z,76.44
2019-03-30T09:24:55.581Z,76.15
2019-03-30T09:25:55.582Z,75.96
2019-03-30T09:26:55.581Z,76.25
2019-03-30T09:27:55.561Z,76.44
2019-03-30T09:28:55.573Z,76.92
2019-03-30T09:29:55.561Z,76.35
2019-03-30T09:30:55.563Z,76.64
2019-03-30T09:31:55.550Z,76.48
2019-03-30T09:32:55.541Z,76.77
2019-03-30T09:33:55.544Z,77.06
2019-03-30T09:34:55.545Z,76.57
2019-03-30T09:35:55.539Z,76.48
2019-03-30T09:36:55.738Z,76.19
2019-03-30T09:37:55.525Z,75.9
2019-03-30T09:38:55.507Z,75.81
2019-03-30T09:39:55.519Z,75.43
2019-03-30T09:40:55.501Z,76.19
2019-03-30T09:41:55.288Z,76
2019-03-30T09:42:55.486Z,75.14
2019-03-30T09:43:55.503Z,75.75
2019-03-30T09:44:55.478Z,74.69
2019-03-30T09:45:55.476Z,74.6
2019-03-30T09:46:55.474Z,74.51
2019-03-30T09:47:55.486Z,74.02
2019-03-30T09:48:55.481Z,73.35
2019-03-30T09:49:55.458Z,74.22
2019-03-30T09:50:55.451Z,73.74
2019-03-30T09:51:55.468Z,73.93
2019-03-30T09:52:55.534Z,73.83
2019-03-30T09:53:55.459Z,73.35
2019-03-30T09:54:55.435Z,73.26
2019-03-30T09:55:55.451Z,73.83
2019-03-30T09:56:55.426Z,73.45
2019-03-30T09:57:55.449Z,73.74
2019-03-30T09:58:55.415Z,73.74
2019-03-30T09:59:55.427Z,73.97
2019-03-30T10:00:55.404Z,73.68
2019-03-30T10:01:55.433Z,74.26
2019-03-30T10:02:55.418Z,73.2
2019-03-30T10:03:55.425Z,73.2
2019-03-30T10:04:55.407Z,73.58
2019-03-30T10:05:55.388Z,73.26
2019-03-30T10:06:55.382Z,73.58
2019-03-30T10:07:55.374Z,73.26
2019-03-30T10:08:55.392Z,73.83
2019-03-30T10:09:55.373Z,74.12
2019-03-30T10:10:55.380Z,74.54
2019-03-30T10:11:55.357Z,74.54
2019-03-30T10:12:55.379Z,73.3
2019-03-30T10:13:55.349Z,73.58
2019-03-30T10:14:55.361Z,72.43
2019-03-30T10:15:55.340Z,72.81
2019-03-30T10:16:55.356Z,73.2
2019-03-30T10:17:55.336Z,73.49
2019-03-30T10:18:55.329Z,73.2
2019-03-30T10:20:06.575Z,73.1
2019-03-30T10:20:55.338Z,73
2019-03-30T10:21:55.324Z,71.95
2019-03-30T10:22:55.307Z,72.05
2019-03-30T10:23:55.308Z,72.24
2019-03-30T10:24:58.232Z,71.95
2019-03-30T10:25:55.331Z,72.43
2019-03-30T10:26:55.314Z,71.66
2019-03-30T10:27:55.287Z,71.66
2019-03-30T10:28:55.301Z,71.95
2019-03-30T10:29:55.286Z,71.47
2019-03-30T10:30:55.581Z,70.99
2019-03-30T10:31:55.290Z,71.12
2019-03-30T10:32:55.266Z,71.12
2019-03-30T10:33:55.266Z,70.93
2019-03-30T10:34:55.258Z,70.45
2019-03-30T10:35:55.275Z,70.36
2019-03-30T10:36:55.267Z,69.87
2019-03-30T10:37:55.249Z,69.59
2019-03-30T10:38:55.240Z,68.53
2019-03-30T10:39:55.238Z,67.38
2019-03-30T10:40:55.255Z,67.96
2019-03-30T10:41:54.989Z,67.96
2019-03-30T10:42:55.223Z,67.47
2019-03-30T10:43:55.238Z,66.8
2019-03-30T10:44:55.213Z,66.8
2019-03-30T10:45:55.229Z,67.86
2019-03-30T10:46:55.208Z,68.15
2019-03-30T10:47:55.220Z,68.24
2019-03-30T10:48:55.197Z,68.73
2019-03-30T10:49:55.204Z,68.73
2019-03-30T10:50:55.187Z,66.71
2019-03-30T10:51:56.933Z,66.61
2019-03-30T10:52:55.196Z,67
2019-03-30T10:53:55.179Z,68.05
2019-03-30T10:54:55.759Z,68.53
2019-03-30T10:55:55.164Z,68.63
2019-03-30T10:56:55.186Z,67.19
2019-03-30T10:57:58.373Z,66.8
2019-03-30T10:58:55.170Z,66.33
2019-03-30T10:59:55.150Z,66.61
2019-03-30T11:00:55.161Z,65.94
2019-03-30T11:01:55.137Z,64.89
2019-03-30T11:02:55.153Z,64.5
2019-03-30T11:03:55.179Z,64.89
2019-03-30T11:04:55.147Z,64.59
2019-03-30T11:05:55.138Z,64.79
2019-03-30T11:06:55.135Z,64.59
2019-03-30T11:07:55.113Z,63.45
2019-03-30T11:08:55.126Z,63.06
2019-03-30T11:09:55.108Z,63.16
2019-03-30T11:10:55.099Z,63.54
2019-03-30T11:11:55.096Z,64.22
2019-03-30T11:12:55.109Z,65.08
2019-03-30T11:13:55.093Z,65.94
2019-03-30T11:14:55.100Z,65.94
2019-03-30T11:15:55.083Z,65.17
2019-03-30T11:16:55.125Z,66.03
2019-03-30T11:17:55.069Z,66.52
2019-03-30T11:18:55.081Z,66.52
2019-03-30T11:19:55.086Z,66.71
2019-03-30T11:20:55.073Z,66.23
2019-03-30T11:21:55.064Z,65.94
2019-03-30T11:22:55.064Z,66.23
2019-03-30T11:23:55.080Z,66.03
2019-03-30T11:25:09.227Z,65.94
2019-03-30T11:25:55.047Z,64.98
2019-03-30T11:26:55.047Z,63.83
2019-03-30T11:27:55.048Z,64.69
2019-03-30T11:28:55.021Z,64.79
2019-03-30T11:29:55.029Z,64.02
2019-03-30T11:30:55.012Z,63.73
2019-03-30T11:31:55.050Z,63.73
2019-03-30T11:32:55.004Z,63.45
2019-03-30T11:33:55.018Z,63.73
2019-03-30T11:34:55.015Z,62.87
2019-03-30T11:35:54.996Z,63.16
2019-03-30T11:36:55.003Z,63.35
2019-03-30T11:37:54.992Z,63.54
2019-03-30T11:38:54.991Z,64.02
2019-03-30T11:39:54.970Z,64.59
2019-03-30T11:40:54.964Z,64.59
2019-03-30T11:41:54.977Z,65.23
2019-03-30T11:42:54.976Z,64.98
2019-03-30T11:43:54.969Z,64.59
2019-03-30T11:44:54.956Z,64.5
2019-03-30T11:45:54.953Z,64.02
2019-03-30T11:46:54.939Z,63.92
2019-03-30T11:47:54.954Z,64.22
2019-03-30T11:48:55.228Z,64.4
2019-03-30T11:49:54.941Z,64.69
2019-03-30T11:50:54.919Z,63.83
2019-03-30T11:51:54.935Z,63.25
2019-03-30T11:52:54.910Z,63.06
2019-03-30T11:53:54.909Z,61.91
2019-03-30T11:54:54.900Z,62.19
2019-03-30T11:55:54.916Z,63.54
2019-03-30T11:56:54.908Z,63.25
2019-03-30T11:57:54.889Z,63.25
2019-03-30T11:58:54.882Z,62.96
2019-03-30T11:59:54.894Z,63.06
2019-03-30T12:00:54.874Z,63.64
2019-03-30T12:01:54.882Z,63.73
2019-03-30T12:02:54.862Z,63.92
2019-03-30T12:03:54.878Z,63.99
2019-03-30T12:04:54.853Z,64.56
2019-03-30T12:05:54.866Z,64.37
2019-03-30T12:06:54.868Z,65.05
2019-03-30T12:07:54.861Z,65.05
2019-03-30T12:08:54.837Z,64.5
2019-03-30T12:09:54.837Z,64.12
2019-03-30T12:10:54.826Z,64.79
2019-03-30T12:11:54.848Z,64.31
2019-03-30T12:12:54.817Z,64.59
2019-03-30T12:13:54.825Z,65.27
2019-03-30T12:14:54.824Z,65.17
2019-03-30T12:15:54.820Z,65.27
2019-03-30T12:16:54.798Z,65.27
2019-03-30T12:17:54.866Z,65.46
2019-03-30T12:18:54.799Z,64.89
2019-03-30T12:19:54.805Z,65.46
2019-03-30T12:20:54.782Z,65.75
2019-03-30T12:21:54.792Z,64.69
2019-03-30T12:22:54.770Z,65.08
2019-03-30T12:23:54.783Z,65.17
2019-03-30T12:24:54.761Z,65.36
2019-03-30T12:25:54.771Z,65.27
2019-03-30T12:26:57.837Z,64.22
2019-03-30T12:27:54.748Z,64.79
2019-03-30T12:28:54.741Z,64.79
2019-03-30T12:29:54.758Z,64.79
2019-03-30T12:30:54.750Z,64.4
2019-03-30T12:31:54.746Z,63.73
2019-03-30T12:32:54.722Z,63.92
2019-03-30T12:33:54.731Z,63.45
2019-03-30T12:34:54.718Z,63.35
2019-03-30T12:35:54.729Z,62.87
2019-03-30T12:36:58.119Z,63.25
2019-03-30T12:37:54.753Z,63.06
2019-03-30T12:38:54.710Z,63.16
2019-03-30T12:39:57.905Z,63.54
2019-03-30T12:40:54.686Z,63.45
2019-03-30T12:41:54.684Z,64.4
2019-03-30T12:42:54.691Z,64.12
2019-03-30T12:43:54.695Z,63.25
2019-03-30T12:44:54.685Z,62.48
2019-03-30T12:45:54.666Z,62.68
2019-03-30T12:46:54.659Z,62.77
2019-03-30T12:47:54.661Z,62.68
2019-03-30T12:48:54.671Z,62.48
2019-03-30T12:49:54.647Z,62.77
2019-03-30T12:50:54.638Z,62.87
2019-03-30T12:51:54.405Z,62.87
2019-03-30T12:52:54.638Z,61.24
2019-03-30T12:53:54.653Z,60.66
2019-03-30T12:54:54.623Z,61.14
2019-03-30T12:55:54.637Z,61.43
2019-03-30T12:56:54.611Z,61.43
2019-03-30T12:57:54.616Z,61.24
2019-03-30T12:58:54.605Z,61.43
2019-03-30T12:59:54.625Z,61.14
2019-03-30T13:00:54.611Z,61.05
2019-03-30T13:01:54.596Z,60.66
2019-03-30T13:02:54.670Z,59.22
2019-03-30T13:03:54.580Z,59.41
2019-03-30T13:04:54.593Z,58.84
2019-03-30T13:05:54.574Z,59.22
2019-03-30T13:06:54.581Z,58.84
2019-03-30T13:07:54.561Z,58.74
2019-03-30T13:08:54.577Z,58.74
2019-03-30T13:09:54.552Z,58.74
2019-03-30T13:10:54.563Z,57.68
2019-03-30T13:11:54.547Z,56.95
2019-03-30T13:12:54.554Z,56.92
2019-03-30T13:13:54.545Z,56.85
2019-03-30T13:14:54.545Z,56.44
2019-03-30T13:15:54.525Z,55.86
2019-03-30T13:16:54.546Z,56.73
2019-03-30T13:17:54.532Z,57.01
2019-03-30T13:18:54.507Z,57.52
2019-03-30T13:19:54.504Z,57.21
2019-03-30T13:20:54.518Z,56.63
2019-03-30T13:21:55.574Z,56.56
2019-03-30T13:22:54.511Z,56.18